Time;durP1;ratioP1;P1;durP2;ratioP2;P2;SDS_P1;SDS_P2;PMS_P1;PMS_P2;Temp;Humidity;BMP_temperature;BMP_pressure;BME280_temperature;BME280_humidity;BME280_pressure;Samples;Min_cycle;Max_cycle;Signal;HPM_P1;HPM_P2
2024/01/18 00:07:15;;;;;;;0.30;0.10;;;2.30;99.90;;;;;;20873844;28;20044;-42
2024/01/18 00:17:16;;;;;;;0.30;0.20;;;2.30;99.90;;;;;;20873847;28;20059;-42
2024/01/18 00:27:18;;;;;;;0.52;0.13;;;2.40;99.90;;;;;;20869831;28;20158;-42
2024/01/18 00:37:20;;;;;;;0.20;0.10;;;2.50;99.90;;;;;;20881619;28;20078;-42
2024/01/18 00:47:22;;;;;;;0.10;0.00;;;2.40;99.90;;;;;;20885072;28;20173;-44
2024/01/18 00:57:24;;;;;;;0.40;0.10;;;2.40;99.90;;;;;;20886933;28;20037;-43
2024/01/18 01:07:25;;;;;;;0.10;0.00;;;2.40;99.90;;;;;;20883791;28;20578;-42
2024/01/18 01:17:27;;;;;;;5.88;0.20;;;2.30;99.90;;;;;;20882794;28;20478;-43
2024/01/18 01:27:29;;;;;;;10.77;0.35;;;2.30;99.90;;;;;;20880854;28;20428;-44
2024/01/18 01:37:31;;;;;;;92.50;2.35;;;2.40;99.90;;;;;;20882081;28;20048;-43
2024/01/18 01:47:32;;;;;;;37.90;0.77;;;2.50;99.90;;;;;;20879167;28;20049;-43
2024/01/18 01:57:36;;;;;;;66.03;1.73;;;2.40;99.90;;;;;;20877993;28;21298;-44
2024/01/18 02:07:38;;;;;;;4.70;0.13;;;2.40;99.90;;;;;;20880908;28;20082;-42
2024/01/18 02:17:41;;;;;;;42.83;0.77;;;2.40;99.90;;;;;;20861914;28;20112;-42
2024/01/18 02:27:42;;;;;;;27.17;0.73;;;2.40;99.90;;;;;;20876917;28;20150;-42
2024/01/18 02:37:44;;;;;;;174.15;5.10;;;2.30;99.90;;;;;;20858892;28;20986;-43
2024/01/18 02:47:49;;;;;;;85.15;2.05;;;2.10;99.90;;;;;;20878110;28;21250;-42
2024/01/18 02:57:53;;;;;;;0.00;0.00;;;2.10;99.90;;;;;;20878076;28;20112;-43
2024/01/18 03:07:55;;;;;;;35.33;0.73;;;2.10;99.90;;;;;;20874042;28;20031;-41
2024/01/18 03:17:57;;;;;;;38.78;0.77;;;2.00;99.90;;;;;;20875158;28;20142;-43
2024/01/18 03:27:59;;;;;;;94.70;2.33;;;1.80;99.90;;;;;;20875493;28;20043;-43
2024/01/18 03:38:02;;;;;;;170.95;4.50;;;1.70;99.90;;;;;;20899471;28;20056;-43
2024/01/18 03:48:04;;;;;;;157.40;3.63;;;1.70;99.90;;;;;;20910272;28;20085;-44
2024/01/18 03:58:07;;;;;;;0.10;0.00;;;1.50;99.90;;;;;;20913366;28;20065;-42
2024/01/18 04:08:08;;;;;;;22.58;0.30;;;1.60;99.90;;;;;;20918328;28;20066;-43
2024/01/18 04:18:10;;;;;;;7.03;0.50;;;2.80;99.90;;;;;;20930647;28;20121;-42
2024/01/18 04:28:15;;;;;;;47.25;0.93;;;2.40;99.90;;;;;;20927674;28;20044;-44
2024/01/18 04:38:17;;;;;;;1.30;0.00;;;2.90;99.90;;;;;;20900447;28;20109;-42
2024/01/18 04:48:19;;;;;;;18.60;0.40;;;1.40;99.90;;;;;;20882833;28;20037;-42
2024/01/18 04:58:21;;;;;;;20.58;0.68;;;1.00;99.90;;;;;;20889189;28;20704;-42
2024/01/18 05:08:23;;;;;;;31.20;0.77;;;1.00;99.90;;;;;;20883459;28;20040;-43
2024/01/18 05:18:25;;;;;;;0.28;0.13;;;1.00;99.90;;;;;;20863686;28;20134;-42
2024/01/18 05:28:27;;;;;;;0.10;0.10;;;1.40;99.90;;;;;;20849887;28;20094;-43
2024/01/18 05:38:32;;;;;;;0.40;0.30;;;1.90;99.90;;;;;;20908775;28;20048;-42
2024/01/18 05:48:34;;;;;;;21.08;1.42;;;1.90;99.90;;;;;;20919081;28;20036;-42
2024/01/18 05:58:36;;;;;;;0.70;0.40;;;1.80;99.90;;;;;;20920463;28;21452;-42
2024/01/18 06:08:38;;;;;;;5.70;0.38;;;1.80;99.90;;;;;;20920576;28;20048;-42
2024/01/18 06:18:44;;;;;;;0.20;0.10;;;1.70;99.90;;;;;;20920656;28;20081;-44
2024/01/18 06:28:46;;;;;;;0.00;0.00;;;1.80;99.90;;;;;;20915953;28;20032;-42
2024/01/18 06:38:49;;;;;;;0.00;0.00;;;1.70;99.90;;;;;;20888062;28;20052;-42
2024/01/18 06:48:54;;;;;;;0.10;0.00;;;1.60;99.90;;;;;;20873682;28;20028;-42
2024/01/18 06:58:56;;;;;;;0.00;0.00;;;1.30;99.90;;;;;;20871865;28;20559;-44
2024/01/18 07:08:57;;;;;;;0.03;0.00;;;1.20;99.90;;;;;;20872795;28;20086;-44
2024/01/18 07:18:59;;;;;;;0.20;0.00;;;1.40;99.90;;;;;;20871230;28;20036;-42
2024/01/18 07:29:01;;;;;;;0.00;0.00;;;1.70;99.90;;;;;;20870266;28;20120;-43
2024/01/18 07:39:03;;;;;;;0.00;0.00;;;2.10;99.90;;;;;;20892874;28;20056;-42
2024/01/18 07:49:05;;;;;;;0.00;0.00;;;2.30;99.90;;;;;;20908735;28;20132;-43
2024/01/18 07:59:06;;;;;;;0.00;0.00;;;2.30;99.90;;;;;;20909898;28;20103;-42
2024/01/18 08:09:11;;;;;;;0.10;0.00;;;2.10;99.90;;;;;;20909588;28;20040;-43
2024/01/18 08:19:13;;;;;;;0.05;0.00;;;1.90;99.90;;;;;;20906427;28;20028;-45
2024/01/18 08:29:16;;;;;;;0.00;0.00;;;2.40;99.90;;;;;;20908386;28;20088;-45
2024/01/18 08:39:18;;;;;;;0.00;0.00;;;3.30;99.90;;;;;;20878105;28;20052;-42
2024/01/18 08:49:24;;;;;;;0.50;0.10;;;4.00;99.90;;;;;;20866874;28;20036;-41
2024/01/18 08:59:26;;;;;;;0.20;0.10;;;4.70;99.90;;;;;;20880583;28;20044;-43
2024/01/18 09:09:29;;;;;;;0.43;0.00;;;5.30;99.90;;;;;;20876100;28;20872;-44
2024/01/18 09:19:31;;;;;;;0.00;0.00;;;5.40;99.90;;;;;;20881267;28;20044;-42
2024/01/18 09:29:33;;;;;;;0.00;0.00;;;5.40;99.90;;;;;;20878738;28;20036;-42
2024/01/18 09:39:35;;;;;;;0.05;0.00;;;5.70;99.90;;;;;;20881823;28;20085;-42
2024/01/18 09:49:38;;;;;;;0.20;0.00;;;6.40;99.90;;;;;;20859335;28;20098;-45
2024/01/18 09:59:44;;;;;;;0.10;0.00;;;6.90;99.90;;;;;;20879122;28;21577;-43
2024/01/18 10:09:46;;;;;;;0.20;0.08;;;7.40;99.90;;;;;;20876726;28;20048;-43
2024/01/18 10:19:57;;;;;;;0.00;0.00;;;8.00;99.90;;;;;;20875989;28;20280;-43
2024/01/18 10:30:00;;;;;;;0.08;0.00;;;8.40;99.90;;;;;;20875390;28;20126;-43
2024/01/18 10:40:03;;;;;;;0.60;0.13;;;8.60;99.90;;;;;;20908812;28;20052;-43
2024/01/18 10:50:07;;;;;;;0.40;0.20;;;8.50;99.90;;;;;;20914626;28;20040;-43
2024/01/18 11:00:15;;;;;;;0.90;0.50;;;8.30;99.90;;;;;;20913550;28;20081;-46
2024/01/18 11:10:17;;;;;;;1.27;0.57;;;8.70;99.90;;;;;;20913479;28;20077;-47
2024/01/18 11:20:19;;;;;;;0.50;0.40;;;8.80;99.90;;;;;;20911358;28;20052;-45
2024/01/18 11:30:35;;;;;;;1.02;0.45;;;8.40;99.90;;;;;;20911465;28;20036;-43
2024/01/18 11:40:37;;;;;;;0.75;0.60;;;7.80;99.90;;;;;;20876697;28;20120;-46
2024/01/18 11:50:40;;;;;;;2.03;1.00;;;7.50;99.90;;;;;;20867489;28;20044;-42
2024/01/18 12:00:42;;;;;;;1.48;0.70;;;7.80;99.90;;;;;;20867304;28;20036;-44
2024/01/18 12:10:45;;;;;;;1.42;0.65;;;8.40;99.90;;;;;;20870812;28;20109;-43
2024/01/18 12:20:48;;;;;;;1.55;0.50;;;8.90;99.90;;;;;;20868653;28;20116;-43
2024/01/18 12:30:51;;;;;;;1.10;0.32;;;9.30;99.90;;;;;;20875290;28;20483;-43
2024/01/18 12:40:53;;;;;;;2.10;0.60;;;10.30;99.90;;;;;;20883353;28;20964;-40
2024/01/18 12:50:55;;;;;;;0.70;0.40;;;10.30;99.90;;;;;;20882181;28;20094;-46
2024/01/18 13:00:57;;;;;;;0.98;0.15;;;10.20;99.90;;;;;;20883138;28;20040;-43
2024/01/18 13:10:58;;;;;;;1.25;0.20;;;10.30;99.90;;;;;;20880334;28;20070;-40
2024/01/18 13:21:00;;;;;;;0.70;0.20;;;10.40;99.90;;;;;;20882494;28;20413;-40
2024/01/18 13:31:03;;;;;;;2.80;0.32;;;9.50;99.90;;;;;;20879960;28;20090;-41
2024/01/18 13:41:05;;;;;;;1.95;0.45;;;9.30;99.90;;;;;;20872827;28;20813;-45
2024/01/18 13:51:07;;;;;;;1.73;0.40;;;8.90;99.90;;;;;;20876274;28;20664;-44
2024/01/18 14:01:08;;;;;;;2.95;0.40;;;8.30;99.90;;;;;;20877048;28;21290;-44
2024/01/18 14:11:11;;;;;;;0.98;0.40;;;7.80;99.90;;;;;;20876055;28;20032;-47
2024/01/18 14:21:13;;;;;;;2.25;0.30;;;7.70;99.90;;;;;;20873177;28;20158;-43
2024/01/18 14:31:18;;;;;;;4.43;0.30;;;7.60;99.90;;;;;;20874438;28;20558;-43
2024/01/18 14:41:20;;;;;;;1.98;0.40;;;7.30;99.90;;;;;;20912488;28;20056;-43
2024/01/18 14:51:21;;;;;;;2.50;0.40;;;6.80;99.90;;;;;;20912231;28;20559;-44
2024/01/18 15:01:23;;;;;;;2.75;0.38;;;6.30;99.90;;;;;;20910775;28;20156;-43
2024/01/18 15:11:25;;;;;;;1.55;0.30;;;5.90;99.90;;;;;;20910633;28;20044;-44
2024/01/18 15:21:27;;;;;;;2.05;0.63;;;5.60;99.90;;;;;;20910414;28;20044;-47
2024/01/18 15:31:33;;;;;;;2.75;0.90;;;5.40;99.90;;;;;;20910542;28;20070;-46
2024/01/18 15:41:35;;;;;;;1.30;0.30;;;5.30;99.90;;;;;;20869367;28;20052;-43
2024/01/18 15:51:37;;;;;;;4.68;1.23;;;5.20;99.90;;;;;;20851794;28;20079;-43
2024/01/18 16:01:38;;;;;;;6.68;1.33;;;5.00;99.90;;;;;;20854542;28;20044;-43
2024/01/18 16:11:40;;;;;;;6.10;1.30;;;4.40;99.90;;;;;;20868409;28;20044;-43
2024/01/18 16:21:42;;;;;;;2.75;0.90;;;4.20;99.90;;;;;;20869950;28;20093;-43
2024/01/18 16:31:44;;;;;;;3.33;1.55;;;4.10;99.90;;;;;;20869972;28;20430;-42
2024/01/18 16:41:48;;;;;;;5.00;1.33;;;4.00;99.90;;;;;;20825707;28;20125;-45
2024/01/18 16:51:49;;;;;;;4.50;0.70;;;3.50;99.90;;;;;;20827563;28;20037;-43
2024/01/18 17:01:51;;;;;;;2.88;0.80;;;3.40;99.90;;;;;;20828547;28;20041;-43
2024/01/18 17:11:56;;;;;;;2.78;0.57;;;3.90;99.90;;;;;;20826701;28;20664;-44
2024/01/18 17:21:58;;;;;;;3.22;0.80;;;4.40;99.90;;;;;;20841171;28;20040;-44
2024/01/18 17:32:00;;;;;;;3.10;0.98;;;4.60;99.90;;;;;;20841138;28;20040;-43
2024/01/18 17:42:02;;;;;;;4.82;1.00;;;4.30;99.90;;;;;;20882887;28;21174;-44
2024/01/18 17:52:07;;;;;;;4.55;0.45;;;4.10;99.90;;;;;;20883687;28;20045;-43
2024/01/18 18:02:09;;;;;;;2.55;0.93;;;4.20;99.90;;;;;;20882124;28;20386;-45
2024/01/18 18:12:11;;;;;;;5.57;1.50;;;4.70;99.90;;;;;;20878295;28;20093;-44
2024/01/18 18:22:14;;;;;;;5.82;1.58;;;4.70;99.90;;;;;;20880556;28;20450;-43
2024/01/18 18:32:16;;;;;;;3.25;0.90;;;4.30;99.90;;;;;;20875437;28;20078;-46
2024/01/18 18:42:18;;;;;;;3.22;0.70;;;4.30;99.90;;;;;;20896336;28;20036;-45
2024/01/18 18:52:20;;;;;;;2.50;0.55;;;5.30;99.90;;;;;;20919584;28;20386;-43
2024/01/18 19:02:22;;;;;;;4.18;0.80;;;5.60;99.90;;;;;;20915950;28;20032;-46
2024/01/18 19:12:23;;;;;;;4.57;1.60;;;5.50;99.90;;;;;;20916647;28;20413;-43
2024/01/18 19:22:28;;;;;;;7.20;1.52;;;5.40;99.90;;;;;;20914870;28;20040;-43
2024/01/18 19:32:30;;;;;;;4.15;0.63;;;4.90;99.90;;;;;;20892538;28;20037;-45
2024/01/18 19:42:32;;;;;;;4.68;0.88;;;4.60;99.90;;;;;;20875066;28;20066;-44
2024/01/18 19:52:35;;;;;;;4.85;0.50;;;5.60;99.90;;;;;;20870561;28;20094;-44
2024/01/18 20:02:37;;;;;;;7.50;2.00;;;6.10;99.90;;;;;;20872752;28;20033;-44
2024/01/18 20:12:39;;;;;;;6.80;2.00;;;6.00;99.90;;;;;;20873354;28;20074;-45
2024/01/18 20:22:42;;;;;;;8.15;2.00;;;4.60;99.90;;;;;;20869749;28;20031;-44
2024/01/18 20:32:44;;;;;;;6.40;2.28;;;3.70;99.90;;;;;;20869242;28;20048;-43
2024/01/18 20:42:46;;;;;;;9.77;2.45;;;3.30;99.90;;;;;;20870812;28;20033;-45
2024/01/18 20:52:48;;;;;;;2.65;0.98;;;3.10;99.90;;;;;;20880015;28;21210;-43
2024/01/18 21:02:51;;;;;;;8.40;1.95;;;3.40;99.90;;;;;;20886658;28;20036;-44
2024/01/18 21:12:54;;;;;;;8.43;1.60;;;4.10;99.90;;;;;;20865159;28;20130;-42
2024/01/18 21:22:56;;;;;;;4.53;1.90;;;4.20;99.90;;;;;;20882360;28;20520;-43
2024/01/18 21:32:57;;;;;;;7.10;2.10;;;4.30;99.90;;;;;;20883561;28;20447;-44
2024/01/18 21:42:59;;;;;;;6.45;2.10;;;4.00;99.90;;;;;;20923262;28;20062;-45
2024/01/18 21:53:03;;;;;;;5.63;2.30;;;3.50;99.90;;;;;;20923378;28;20508;-44
2024/01/18 22:03:05;;;;;;;6.45;1.70;;;3.00;99.90;;;;;;20922863;28;20040;-43
2024/01/18 22:13:07;;;;;;;7.82;2.88;;;3.00;99.90;;;;;;20922212;28;20133;-43
2024/01/18 22:23:09;;;;;;;9.57;2.70;;;3.00;99.90;;;;;;20919882;28;20040;-46
2024/01/18 22:33:11;;;;;;;9.13;2.65;;;2.80;99.90;;;;;;20915376;28;20831;-43
2024/01/18 22:43:12;;;;;;;7.07;3.33;;;2.60;99.90;;;;;;20876085;28;20094;-44
2024/01/18 22:53:17;;;;;;;4.97;2.03;;;2.70;99.90;;;;;;20878664;28;20156;-43
2024/01/18 23:03:22;;;;;;;5.15;1.30;;;2.60;99.90;;;;;;20878481;28;20037;-45
2024/01/18 23:13:25;;;;;;;7.45;2.45;;;3.00;99.90;;;;;;20871718;28;20780;-43
2024/01/18 23:23:28;;;;;;;5.28;1.50;;;3.40;99.90;;;;;;20875134;28;20063;-44
2024/01/18 23:33:30;;;;;;;6.35;1.38;;;3.50;99.90;;;;;;20872731;28;20110;-43
2024/01/18 23:43:32;;;;;;;4.28;1.50;;;4.10;99.90;;;;;;20879202;28;20040;-43
2024/01/18 23:53:33;;;;;;;9.35;1.90;;;4.00;99.90;;;;;;20847229;28;20678;-43
